Decoded Metar for SGES (GUARANY in PARAGUAY) (IATA:N/A) | Meteo·Mobile Aviation Weather
aviador You're here:

SGES Decoded Metar

GUARANY in PARAGUAY
Report Time2019-03-21 21:00:00
UTC Time2019-03-21 22:26:02
Flight Rules Old
Wind190° at 08 kt
W.Decomp.*RWY 23: 7.3 kt HW 3.4 kt LCW
W.Rank190° ranks 6
Current wind is above 190° avg. (6.8)
Visibility9999 m
Phenomena:N/A
Clouds:Few 030 Hf
Expected CloudBase > 3,200 ft AGL from Temp-Dew spread
CeilingNone
Temp26°C (ISA +17)
Dew Point18°C (61% RH)
AAT25.9°C
QNH1013 hPa
Density Alt4,967 ft
Elevation2,785 ft
Report Wrong Elevation
Raw Report
METAR SGES 212100Z 19008KT 9999 FEW030 26/18 Q1013=

Extra information for SGES:More info

Metar Taf Metar & Taf Last 4 Metars F.Rules Stats Wind Profile Meteogram Temp Stats Airport Information Weather charts Add Link Nearby VenuesMetar ALERT Operation Metar Decoded Social comments